createdAt,value
2022-12-23T00:00:22.133Z,49.95
2022-12-23T00:02:49.807Z,49.35
2022-12-23T00:05:17.666Z,48.15
2022-12-23T00:07:45.890Z,49.72
2022-12-23T00:10:14.851Z,43.90
2022-12-23T00:13:00.100Z,41.67
2022-12-23T00:15:27.724Z,42.30
2022-12-23T00:17:55.300Z,59.10
2022-12-23T00:20:22.943Z,65.25
2022-12-23T00:23:08.612Z,92.82
2022-12-23T00:25:42.261Z,110.78
2022-12-23T00:28:11.750Z,116.57
2022-12-23T00:30:39.782Z,160.40
2022-12-23T00:33:07.471Z,161.90
2022-12-23T00:35:35.067Z,193.57
2022-12-23T00:38:02.629Z,189.30
2022-12-23T00:40:47.702Z,155.02
2022-12-23T00:43:16.628Z,201.43
2022-12-23T00:45:44.286Z,224.57
2022-12-23T00:48:41.076Z,194.80
2022-12-23T00:51:08.727Z,151.07
2022-12-23T00:53:36.365Z,146.20
2022-12-23T00:56:04.017Z,138.70
2022-12-23T00:58:32.991Z,191.30
2022-12-23T01:01:18.127Z,157.88
2022-12-23T01:03:59.663Z,161.10
2022-12-23T01:06:27.243Z,136.60
2022-12-23T01:08:54.854Z,110.55
2022-12-23T01:11:22.481Z,114.55
2022-12-23T01:13:51.426Z,134.32
2022-12-23T01:16:19.007Z,120.38
2022-12-23T01:18:46.744Z,119.55
2022-12-23T01:21:14.411Z,139.80
2022-12-23T01:23:42.090Z,144.48
2022-12-23T01:26:09.963Z,123.45
2022-12-23T01:28:38.430Z,120.72
2022-12-23T01:31:10.417Z,152.30
2022-12-23T01:33:38.052Z,127.65
2022-12-23T01:36:08.265Z,120.03
2022-12-23T01:38:36.103Z,119.83
2022-12-23T01:41:03.800Z,118.07
2022-12-23T01:43:45.523Z,108.63
2022-12-23T01:46:14.637Z,116.07
2022-12-23T01:48:43.264Z,113.45
2022-12-23T01:51:14.397Z,106.18
2022-12-23T01:53:45.013Z,103.28
2022-12-23T01:56:14.650Z,103.83
2022-12-23T01:58:44.915Z,105.60
2022-12-23T02:01:32.064Z,101.35
2022-12-23T02:04:03.206Z,100.78
2022-12-23T02:06:52.240Z,103.68
2022-12-23T02:09:21.806Z,102.13
2022-12-23T02:12:02.391Z,102.20
2022-12-23T02:14:57.858Z,100.15
2022-12-23T02:17:30.924Z,101.13
2022-12-23T02:20:20.001Z,98.20
2022-12-23T02:23:02.789Z,97.45
2022-12-23T02:25:47.987Z,93.15
2022-12-23T02:28:52.346Z,99.35
2022-12-23T02:31:25.576Z,102.72
2022-12-23T02:33:59.504Z,104.95
2022-12-23T02:36:37.855Z,108.68
2022-12-23T02:39:08.674Z,108.20
2022-12-23T02:41:42.380Z,102.47
2022-12-23T02:44:16.101Z,106.35
2022-12-23T02:46:48.167Z,111.90
2022-12-23T02:49:18.216Z,111.28
2022-12-23T02:51:49.247Z,110.03
2022-12-23T02:54:20.839Z,111.85
2022-12-23T02:56:51.322Z,121.57
2022-12-23T02:59:22.307Z,124.47
2022-12-23T03:01:53.231Z,137.25
2022-12-23T03:04:20.961Z,117.13
2022-12-23T03:06:51.266Z,122.60
2022-12-23T03:09:26.616Z,119.32
2022-12-23T03:11:59.824Z,117.63
2022-12-23T03:14:46.287Z,115.25
2022-12-23T03:17:31.290Z,118.17
2022-12-23T03:20:04.668Z,101.95
2022-12-23T03:22:38.107Z,108.93
2022-12-23T03:25:11.200Z,110.90
2022-12-23T03:27:41.613Z,110.38
2022-12-23T03:30:11.144Z,105.13
2022-12-23T03:32:45.212Z,111.80
2022-12-23T03:35:15.252Z,114.77
2022-12-23T03:37:47.554Z,110.43
2022-12-23T03:40:18.875Z,120.28
2022-12-23T03:42:47.674Z,120.45
2022-12-23T03:48:09.885Z,110.32
2022-12-23T03:50:37.828Z,113.38
2022-12-23T03:53:09.421Z,104.55
2022-12-23T03:55:40.157Z,104.28
2022-12-23T03:58:11.465Z,116.95
2022-12-23T04:00:50.668Z,112.55
2022-12-23T04:03:23.132Z,101.20
2022-12-23T04:05:54.357Z,104.40
2022-12-23T04:08:25.136Z,114.97
2022-12-23T04:10:55.387Z,113.10
2022-12-23T04:13:22.995Z,110.63
2022-12-23T04:15:50.834Z,116.53
2022-12-23T04:18:19.838Z,110.22
2022-12-23T04:20:47.459Z,98.93
2022-12-23T04:23:15.044Z,98.68
2022-12-23T04:25:42.778Z,116.43
2022-12-23T04:28:10.430Z,112.97
2022-12-23T04:30:38.048Z,112.50
2022-12-23T04:33:05.635Z,104.00
2022-12-23T04:35:34.618Z,116.03
2022-12-23T04:38:02.179Z,109.38
2022-12-23T04:40:29.952Z,118.43
2022-12-23T04:42:57.576Z,113.53
2022-12-23T04:45:25.190Z,108.55
2022-12-23T04:47:54.378Z,102.28
2022-12-23T04:50:21.968Z,95.93
2022-12-23T04:52:50.866Z,91.17
2022-12-23T04:55:18.556Z,90.22
2022-12-23T04:57:46.185Z,91.57
2022-12-23T05:00:14.806Z,88.30
2022-12-23T05:02:42.464Z,87.80
2022-12-23T05:05:10.461Z,89.38
2022-12-23T05:07:38.026Z,85.65
2022-12-23T05:10:08.205Z,84.63
2022-12-23T05:12:35.851Z,87.85
2022-12-23T05:15:03.474Z,98.18
2022-12-23T05:17:31.047Z,90.90
2022-12-23T05:19:58.635Z,92.50
2022-12-23T05:22:26.187Z,88.88
2022-12-23T05:24:53.786Z,93.07
2022-12-23T05:27:22.794Z,86.75
2022-12-23T05:29:50.380Z,87.80
2022-12-23T05:32:17.951Z,90.57
2022-12-23T05:34:45.545Z,77.72
2022-12-23T05:37:13.148Z,83.83
2022-12-23T05:39:40.767Z,83.45
2022-12-23T05:42:08.390Z,87.40
2022-12-23T05:44:37.379Z,77.18
2022-12-23T05:47:04.979Z,75.00
2022-12-23T05:49:32.579Z,76.93
2022-12-23T05:52:00.206Z,74.15
2022-12-23T05:54:27.767Z,74.32
2022-12-23T05:56:55.367Z,69.10
2022-12-23T05:59:27.656Z,70.90
2022-12-23T06:01:59.819Z,66.80
2022-12-23T06:04:27.664Z,67.88
2022-12-23T06:06:55.302Z,65.60
2022-12-23T06:09:22.882Z,71.10
2022-12-23T06:11:50.799Z,70.90
2022-12-23T06:14:20.462Z,73.78
2022-12-23T06:16:52.563Z,71.13
2022-12-23T06:19:21.508Z,78.13
2022-12-23T06:21:49.132Z,75.05
2022-12-23T06:24:16.768Z,74.13
2022-12-23T06:26:44.386Z,78.72
2022-12-23T06:29:11.982Z,72.25
2022-12-23T06:31:39.581Z,69.07
2022-12-23T06:34:07.247Z,71.40
2022-12-23T06:36:36.198Z,75.13
2022-12-23T06:39:03.788Z,77.63
2022-12-23T06:41:31.424Z,78.13
2022-12-23T06:43:59.010Z,73.23
2022-12-23T06:46:26.628Z,70.93
2022-12-23T06:48:54.247Z,72.55
2022-12-23T06:51:21.927Z,66.47
2022-12-23T06:53:50.893Z,72.68
2022-12-23T06:56:19.209Z,78.13
2022-12-23T06:58:46.763Z,77.25
2022-12-23T07:01:14.534Z,67.93
2022-12-23T07:03:42.163Z,73.10
2022-12-23T07:06:09.742Z,72.95
2022-12-23T07:08:37.316Z,71.80
2022-12-23T07:11:06.548Z,86.05
2022-12-23T07:13:34.611Z,67.03
2022-12-23T07:16:06.853Z,84.70
2022-12-23T07:18:34.839Z,88.95
2022-12-23T07:21:04.360Z,77.57
2022-12-23T07:23:32.360Z,93.70
2022-12-23T07:25:59.959Z,78.55
2022-12-23T07:28:28.901Z,86.30
2022-12-23T07:30:56.505Z,83.85
2022-12-23T07:33:24.131Z,80.70
2022-12-23T07:35:51.748Z,75.55
2022-12-23T07:38:19.363Z,83.72
2022-12-23T07:40:49.637Z,89.17
2022-12-23T07:43:17.208Z,85.18
2022-12-23T07:45:46.258Z,80.72
2022-12-23T07:48:13.910Z,77.28
2022-12-23T07:50:41.636Z,79.70
2022-12-23T07:53:09.226Z,78.32
2022-12-23T07:55:36.999Z,73.38
2022-12-23T07:58:04.618Z,79.43
2022-12-23T08:00:32.194Z,76.68
2022-12-23T08:03:01.226Z,76.28
2022-12-23T08:05:28.883Z,70.20
2022-12-23T08:07:56.524Z,65.72
2022-12-23T08:10:24.072Z,65.93
2022-12-23T08:12:51.632Z,64.07
2022-12-23T08:15:19.170Z,66.40
2022-12-23T08:17:46.755Z,71.63
2022-12-23T08:20:15.756Z,64.20
2022-12-23T08:22:43.349Z,63.08
2022-12-23T08:25:11.216Z,64.90
2022-12-23T08:27:38.791Z,72.75
2022-12-23T08:30:07.850Z,71.15
2022-12-23T08:32:35.407Z,72.82
2022-12-23T08:35:02.997Z,68.68
2022-12-23T08:37:31.879Z,68.03
2022-12-23T08:39:59.427Z,63.55
2022-12-23T08:42:26.936Z,61.75
2022-12-23T08:44:54.487Z,66.65
2022-12-23T08:47:22.073Z,67.67
2022-12-23T08:49:49.676Z,62.30
2022-12-23T08:52:17.244Z,59.10
2022-12-23T08:54:46.220Z,58.30
2022-12-23T08:57:13.839Z,59.95
2022-12-23T08:59:41.472Z,65.30
2022-12-23T09:02:11.021Z,60.17
2022-12-23T09:04:38.710Z,58.55
2022-12-23T09:07:06.375Z,61.92
2022-12-23T09:09:33.991Z,55.67
2022-12-23T09:12:03.030Z,56.83
2022-12-23T09:14:30.569Z,63.90
2022-12-23T09:16:58.171Z,52.35
2022-12-23T09:19:25.765Z,49.25
2022-12-23T09:21:53.286Z,56.17
2022-12-23T09:24:20.827Z,60.53
2022-12-23T09:26:48.402Z,61.57
2022-12-23T09:29:17.293Z,57.05
2022-12-23T09:31:45.084Z,56.08
2022-12-23T09:34:12.778Z,67.57
2022-12-23T09:36:40.511Z,55.20
2022-12-23T09:39:08.113Z,53.35
2022-12-23T09:41:48.868Z,51.72
2022-12-23T09:44:30.483Z,49.60
2022-12-23T09:47:00.850Z,39.95
2022-12-23T09:49:28.735Z,50.42
2022-12-23T09:52:00.207Z,39.83
2022-12-23T09:54:29.743Z,42.40
2022-12-23T09:56:59.810Z,37.90
2022-12-23T09:59:38.570Z,35.70
2022-12-23T10:02:12.755Z,31.85
2022-12-23T10:04:44.046Z,31.05
2022-12-23T10:07:26.971Z,31.25
2022-12-23T10:09:55.986Z,30.30
2022-12-23T10:12:37.367Z,29.02
2022-12-23T10:15:19.767Z,29.45
2022-12-23T10:17:47.823Z,30.58
2022-12-23T10:20:19.190Z,31.67
2022-12-23T10:22:47.695Z,27.40
2022-12-23T10:25:17.175Z,39.30
2022-12-23T10:27:45.277Z,29.55
2022-12-23T10:33:06.369Z,39.05
2022-12-23T10:35:42.161Z,33.77
2022-12-23T10:38:17.993Z,49.13
2022-12-23T10:40:52.431Z,40.47
2022-12-23T10:43:24.489Z,53.38
2022-12-23T10:45:58.871Z,58.00
2022-12-23T10:48:35.192Z,42.47
2022-12-23T10:51:04.797Z,51.65
2022-12-23T10:53:37.103Z,50.38
2022-12-23T10:56:06.487Z,51.03
2022-12-23T10:58:35.656Z,48.80
2022-12-23T11:01:14.943Z,61.83
2022-12-23T11:03:47.566Z,51.60
2022-12-23T11:06:16.244Z,72.32
2022-12-23T11:08:44.363Z,57.28
2022-12-23T11:11:11.942Z,60.72
2022-12-23T11:13:41.315Z,68.82
2022-12-23T11:16:23.572Z,61.03
2022-12-23T11:19:00.337Z,56.80
2022-12-23T11:21:29.047Z,71.88
2022-12-23T11:24:17.916Z,54.70
2022-12-23T11:26:46.483Z,64.57
2022-12-23T11:29:22.075Z,76.45
2022-12-23T11:31:51.358Z,85.85
2022-12-23T11:34:21.005Z,67.60
2022-12-23T11:36:56.636Z,73.38
2022-12-23T11:39:28.622Z,66.60
2022-12-23T11:42:03.065Z,52.17
2022-12-23T11:44:33.434Z,51.42
2022-12-23T11:47:26.147Z,43.37
2022-12-23T11:49:55.404Z,51.45
2022-12-23T11:52:24.126Z,46.67
2022-12-23T11:54:54.752Z,60.55
2022-12-23T11:57:24.680Z,47.50
2022-12-23T11:59:57.859Z,49.83
2022-12-23T12:02:33.373Z,66.07
2022-12-23T12:05:02.694Z,64.38
2022-12-23T12:07:31.401Z,74.97
2022-12-23T12:10:01.311Z,72.47
2022-12-23T12:12:30.177Z,103.18
2022-12-23T12:14:59.103Z,98.88
2022-12-23T12:17:33.413Z,94.65
2022-12-23T12:20:05.752Z,91.63
2022-12-23T12:22:38.287Z,60.73
2022-12-23T12:25:17.448Z,82.00
2022-12-23T12:27:48.078Z,64.70
2022-12-23T12:30:19.111Z,48.60
2022-12-23T12:32:58.884Z,41.33
2022-12-23T12:35:33.554Z,47.13
2022-12-23T12:38:08.034Z,36.67
2022-12-23T12:40:40.163Z,30.33
2022-12-23T12:43:17.106Z,31.65
2022-12-23T12:45:49.670Z,25.00
2022-12-23T12:48:34.949Z,23.63
2022-12-23T12:51:06.787Z,21.93
2022-12-23T12:53:34.730Z,22.60
2022-12-23T12:56:08.299Z,19.17
2022-12-23T12:58:35.876Z,19.67
2022-12-23T13:01:14.275Z,23.35
2022-12-23T13:04:12.413Z,20.77
2022-12-23T13:06:46.729Z,16.55
2022-12-23T13:09:19.820Z,17.30
2022-12-23T13:11:51.674Z,16.38
2022-12-23T13:14:26.998Z,16.23
2022-12-23T13:17:01.317Z,16.52
2022-12-23T13:19:34.102Z,15.63
2022-12-23T13:22:07.827Z,13.60
2022-12-23T13:24:54.936Z,12.50
2022-12-23T13:27:28.348Z,12.55
2022-12-23T13:30:05.751Z,11.65
2022-12-23T13:33:06.709Z,11.23
2022-12-23T13:35:43.511Z,11.85
2022-12-23T13:38:22.302Z,10.82
2022-12-23T13:40:57.782Z,12.60
2022-12-23T13:43:27.022Z,12.23
2022-12-23T13:45:55.686Z,10.10
2022-12-23T13:48:34.585Z,10.40
2022-12-23T13:51:09.001Z,11.35
2022-12-23T13:53:48.439Z,10.87
2022-12-23T13:56:22.363Z,11.00
2022-12-23T13:58:50.746Z,13.37
2022-12-23T14:01:33.444Z,12.40
2022-12-23T14:04:35.853Z,12.90
2022-12-23T14:07:07.022Z,9.57
2022-12-23T14:09:36.467Z,11.68
2022-12-23T14:12:20.047Z,10.95
2022-12-23T14:14:57.491Z,10.57
2022-12-23T14:17:30.515Z,11.10
2022-12-23T14:20:07.729Z,10.50
2022-12-23T14:22:48.004Z,9.25
2022-12-23T14:25:44.854Z,10.80
2022-12-23T14:28:21.792Z,7.82
2022-12-23T14:30:49.483Z,10.07
2022-12-23T14:33:24.441Z,10.52
2022-12-23T14:35:57.612Z,10.75
2022-12-23T14:38:35.319Z,10.10
2022-12-23T14:41:27.741Z,8.32
2022-12-23T14:43:57.624Z,10.95
2022-12-23T14:46:58.665Z,16.35
2022-12-23T14:49:47.409Z,13.90
2022-12-23T14:52:47.912Z,17.35
2022-12-23T14:55:43.294Z,11.82
2022-12-23T14:58:35.384Z,16.38
2022-12-23T15:01:05.288Z,12.60
2022-12-23T15:03:35.455Z,18.83
2022-12-23T15:06:08.120Z,13.55
2022-12-23T15:08:39.126Z,13.38
2022-12-23T15:11:09.131Z,15.53
2022-12-23T15:13:37.724Z,13.27
2022-12-23T15:16:05.536Z,9.90
2022-12-23T15:18:33.144Z,9.63
2022-12-23T15:21:02.014Z,11.30
2022-12-23T15:23:30.214Z,9.55
2022-12-23T15:26:01.535Z,10.52
2022-12-23T15:28:37.290Z,9.75
2022-12-23T15:31:05.232Z,9.20
2022-12-23T15:36:30.593Z,10.75
2022-12-23T15:38:59.689Z,14.77
2022-12-23T15:41:27.551Z,11.80
2022-12-23T15:44:01.490Z,11.00
2022-12-23T15:46:30.782Z,12.55
2022-12-23T15:48:58.580Z,11.85
2022-12-23T15:52:05.058Z,11.15
2022-12-23T15:54:23.101Z,13.32
2022-12-23T15:56:54.010Z,15.88
2022-12-23T15:59:28.972Z,15.30
2022-12-23T16:01:56.719Z,15.88
2022-12-23T16:04:27.219Z,15.90
2022-12-23T16:06:55.714Z,14.82
2022-12-23T16:09:36.143Z,27.40
2022-12-23T16:12:05.414Z,20.75
2022-12-23T16:14:37.071Z,18.67
2022-12-23T16:17:16.849Z,17.20
2022-12-23T16:19:46.323Z,17.52
2022-12-23T16:22:31.042Z,18.00
2022-12-23T16:25:02.958Z,17.50
2022-12-23T16:27:35.817Z,21.30
2022-12-23T16:30:15.212Z,18.85
2022-12-23T16:32:49.803Z,22.73
2022-12-23T16:35:37.030Z,20.27
2022-12-23T16:38:17.232Z,22.10
2022-12-23T16:40:46.081Z,19.42
2022-12-23T16:43:13.741Z,21.73
2022-12-23T16:45:42.980Z,20.33
2022-12-23T16:48:12.802Z,21.25
2022-12-23T16:50:40.458Z,20.25
2022-12-23T16:53:08.045Z,17.83
2022-12-23T16:55:35.633Z,21.00
2022-12-23T16:58:03.274Z,19.65
2022-12-23T17:00:30.872Z,22.88
2022-12-23T17:03:00.014Z,18.90
2022-12-23T17:05:27.653Z,15.20
2022-12-23T17:07:55.471Z,14.98
2022-12-23T17:10:23.064Z,15.77
2022-12-23T17:12:51.247Z,14.63
2022-12-23T17:15:21.592Z,14.25
2022-12-23T17:17:50.334Z,14.82
2022-12-23T17:20:20.895Z,14.32
2022-12-23T17:22:51.311Z,13.30
2022-12-23T17:25:26.222Z,14.60
2022-12-23T17:27:55.654Z,13.75
2022-12-23T17:30:24.652Z,15.63
2022-12-23T17:32:55.380Z,14.68
2022-12-23T17:35:25.693Z,14.35
2022-12-23T17:37:53.801Z,14.50
2022-12-23T17:40:21.558Z,13.68
2022-12-23T17:42:49.270Z,12.97
2022-12-23T17:45:24.559Z,13.43
2022-12-23T17:47:52.368Z,14.23
2022-12-23T17:50:21.369Z,14.40
2022-12-23T17:52:50.654Z,13.30
2022-12-23T17:55:21.107Z,16.55
2022-12-23T17:57:48.894Z,16.92
2022-12-23T18:00:26.565Z,17.52
2022-12-23T18:02:59.225Z,20.70
2022-12-23T18:05:28.510Z,27.92
2022-12-23T18:08:00.625Z,20.70
2022-12-23T18:10:31.261Z,20.77
2022-12-23T18:13:01.080Z,22.55
2022-12-23T18:15:33.747Z,21.23
2022-12-23T18:18:01.317Z,20.75
2022-12-23T18:20:29.215Z,21.80
2022-12-23T18:22:59.304Z,20.13
2022-12-23T18:25:28.102Z,23.48
2022-12-23T18:27:55.872Z,21.08
2022-12-23T18:30:23.688Z,22.38
2022-12-23T18:32:51.291Z,22.08
2022-12-23T18:35:26.184Z,28.50
2022-12-23T18:37:54.106Z,24.23
2022-12-23T18:40:26.779Z,21.92
2022-12-23T18:42:58.536Z,24.13
2022-12-23T18:45:32.360Z,25.10
2022-12-23T18:48:00.427Z,30.90
2022-12-23T18:50:28.840Z,26.20
2022-12-23T18:52:56.537Z,26.17
2022-12-23T18:55:25.563Z,22.88
2022-12-23T18:57:53.113Z,23.30
2022-12-23T19:00:22.441Z,23.35
2022-12-23T19:02:53.145Z,18.45
2022-12-23T19:05:22.471Z,21.42
2022-12-23T19:07:51.289Z,21.98
2022-12-23T19:10:20.283Z,21.50
2022-12-23T19:12:49.284Z,24.02
2022-12-23T19:15:17.707Z,21.38
2022-12-23T19:17:46.351Z,27.00
2022-12-23T19:20:15.517Z,24.33
2022-12-23T19:22:43.073Z,28.70
2022-12-23T19:25:11.904Z,28.48
2022-12-23T19:27:40.262Z,27.83
2022-12-23T19:30:12.040Z,23.73
2022-12-23T19:32:39.622Z,27.27
2022-12-23T19:35:08.118Z,25.50
2022-12-23T19:37:36.359Z,19.52
2022-12-23T19:40:04.323Z,18.90
2022-12-23T19:42:33.848Z,20.80
2022-12-23T19:45:01.551Z,24.97
2022-12-23T19:47:30.515Z,28.73
2022-12-23T19:49:58.104Z,19.75
2022-12-23T19:52:25.708Z,22.13
2022-12-23T19:54:53.515Z,23.73
2022-12-23T19:57:21.093Z,22.85
2022-12-23T19:59:48.678Z,21.38
2022-12-23T20:02:16.787Z,20.13
2022-12-23T20:04:45.813Z,18.90
2022-12-23T20:07:13.454Z,15.43
2022-12-23T20:09:41.331Z,22.33
2022-12-23T20:12:08.961Z,14.30
2022-12-23T20:14:36.552Z,20.33
2022-12-23T20:17:04.453Z,19.08
2022-12-23T20:19:32.103Z,15.57
2022-12-23T20:22:01.075Z,17.35
2022-12-23T20:24:28.870Z,16.98
2022-12-23T20:26:56.891Z,14.70
2022-12-23T20:29:24.427Z,14.27
2022-12-23T20:31:52.064Z,16.13
2022-12-23T20:34:19.601Z,14.50
2022-12-23T20:36:47.306Z,12.80
2022-12-23T20:39:16.374Z,16.42
2022-12-23T20:41:44.000Z,19.67
2022-12-23T20:46:59.248Z,19.95
2022-12-23T20:49:27.113Z,20.08
2022-12-23T20:51:54.657Z,24.48
2022-12-23T20:54:29.679Z,24.10
2022-12-23T20:56:59.797Z,21.70
2022-12-23T20:59:27.403Z,21.77
2022-12-23T21:01:55.217Z,21.80
2022-12-23T21:04:22.964Z,22.75
2022-12-23T21:06:50.912Z,21.10
2022-12-23T21:09:19.280Z,21.40
2022-12-23T21:11:48.614Z,21.33
2022-12-23T21:14:16.545Z,23.93
2022-12-23T21:16:44.394Z,25.20
2022-12-23T21:19:16.708Z,22.52
2022-12-23T21:21:44.668Z,116.97
2022-12-23T21:24:12.451Z,51.22
2022-12-23T21:26:40.668Z,33.47
2022-12-23T21:29:10.699Z,26.60
2022-12-23T21:31:40.286Z,25.23
2022-12-23T21:34:08.850Z,23.27
2022-12-23T21:36:38.537Z,28.65
2022-12-23T21:39:07.044Z,40.70
2022-12-23T21:41:36.939Z,39.17
2022-12-23T21:44:05.114Z,30.35
2022-12-23T21:46:34.057Z,26.55
2022-12-23T21:49:01.827Z,42.05
2022-12-23T21:51:39.036Z,31.05
2022-12-23T21:54:08.694Z,29.80
2022-12-23T21:56:36.309Z,33.10
2022-12-23T21:59:06.047Z,29.30
2022-12-23T22:01:35.112Z,35.20
2022-12-23T22:04:02.774Z,29.67
2022-12-23T22:06:31.782Z,32.75
2022-12-23T22:08:59.788Z,38.30
2022-12-23T22:11:29.373Z,41.20
2022-12-23T22:13:57.578Z,33.30
2022-12-23T22:16:26.764Z,37.88
2022-12-23T22:18:56.721Z,35.45
2022-12-23T22:21:25.709Z,33.70
2022-12-23T22:23:54.094Z,30.52
2022-12-23T22:26:25.659Z,36.78
2022-12-23T22:28:53.995Z,37.00
2022-12-23T22:31:25.601Z,29.67
2022-12-23T22:33:53.176Z,31.83
2022-12-23T22:36:22.140Z,34.13
2022-12-23T22:38:52.741Z,28.83
2022-12-23T22:41:20.557Z,28.38
2022-12-23T22:43:48.215Z,17.95
2022-12-23T22:46:16.451Z,17.48
2022-12-23T22:48:44.337Z,13.88
2022-12-23T22:51:14.810Z,9.85
2022-12-23T22:53:44.104Z,9.50
2022-12-23T22:56:12.945Z,7.88
2022-12-23T22:58:40.612Z,8.60
2022-12-23T23:01:08.955Z,11.07
2022-12-23T23:03:36.489Z,12.15
2022-12-23T23:06:07.001Z,12.63
2022-12-23T23:08:35.359Z,10.88
2022-12-23T23:11:05.954Z,13.73
2022-12-23T23:13:35.637Z,14.20
2022-12-23T23:16:03.521Z,12.48
2022-12-23T23:18:31.565Z,16.33
2022-12-23T23:20:59.204Z,17.85
2022-12-23T23:23:26.798Z,16.60
2022-12-23T23:25:55.716Z,16.40
2022-12-23T23:28:24.603Z,21.50
2022-12-23T23:31:09.679Z,18.23
2022-12-23T23:33:39.981Z,21.23
2022-12-23T23:36:08.734Z,16.33
2022-12-23T23:38:36.372Z,25.02
2022-12-23T23:41:04.210Z,19.73
2022-12-23T23:43:33.089Z,21.58
2022-12-23T23:46:00.698Z,18.70
2022-12-23T23:48:28.315Z,19.45
2022-12-23T23:51:03.988Z,23.45
2022-12-23T23:53:31.724Z,20.35
2022-12-23T23:56:03.156Z,22.17
2022-12-23T23:58:30.715Z,21.23
